sensor_id;sensor_type;location;lat;lon;timestamp;P1;durP1;ratioP1;P2;durP2;ratioP2
37787;SDS011;23627;53.302;-6.362;2023-04-24T00:00:00;4.97;;;3.90;;
37787;SDS011;23627;53.302;-6.362;2023-04-24T00:02:30;5.20;;;4.00;;
37787;SDS011;23627;53.302;-6.362;2023-04-24T00:04:57;4.88;;;4.00;;
37787;SDS011;23627;53.302;-6.362;2023-04-24T00:07:27;6.15;;;4.05;;
37787;SDS011;23627;53.302;-6.362;2023-04-24T00:09:53;5.28;;;3.97;;
37787;SDS011;23627;53.302;-6.362;2023-04-24T00:12:19;4.78;;;3.72;;
37787;SDS011;23627;53.302;-6.362;2023-04-24T00:14:45;5.18;;;3.70;;
37787;SDS011;23627;53.302;-6.362;2023-04-24T00:17:11;4.85;;;3.85;;
37787;SDS011;23627;53.302;-6.362;2023-04-24T00:19:37;5.38;;;3.58;;
37787;SDS011;23627;53.302;-6.362;2023-04-24T00:22:03;5.55;;;4.10;;
37787;SDS011;23627;53.302;-6.362;2023-04-24T00:24:29;5.72;;;3.95;;
37787;SDS011;23627;53.302;-6.362;2023-04-24T00:26:54;4.30;;;3.78;;
37787;SDS011;23627;53.302;-6.362;2023-04-24T00:29:20;5.22;;;3.80;;
37787;SDS011;23627;53.302;-6.362;2023-04-24T00:31:46;6.40;;;4.07;;
37787;SDS011;23627;53.302;-6.362;2023-04-24T00:34:12;6.68;;;4.45;;
37787;SDS011;23627;53.302;-6.362;2023-04-24T00:36:37;5.63;;;3.88;;
37787;SDS011;23627;53.302;-6.362;2023-04-24T00:39:03;4.00;;;3.47;;
37787;SDS011;23627;53.302;-6.362;2023-04-24T00:41:29;5.50;;;3.70;;
37787;SDS011;23627;53.302;-6.362;2023-04-24T00:43:55;5.32;;;3.60;;
37787;SDS011;23627;53.302;-6.362;2023-04-24T00:46:21;5.90;;;4.03;;
37787;SDS011;23627;53.302;-6.362;2023-04-24T00:48:47;5.85;;;3.85;;
37787;SDS011;23627;53.302;-6.362;2023-04-24T00:51:13;4.45;;;3.63;;
37787;SDS011;23627;53.302;-6.362;2023-04-24T00:53:38;5.22;;;3.97;;
37787;SDS011;23627;53.302;-6.362;2023-04-24T00:56:04;4.47;;;3.70;;
37787;SDS011;23627;53.302;-6.362;2023-04-24T00:58:30;5.10;;;3.85;;
37787;SDS011;23627;53.302;-6.362;2023-04-24T01:00:57;5.88;;;3.83;;
37787;SDS011;23627;53.302;-6.362;2023-04-24T01:03:26;4.97;;;3.80;;
37787;SDS011;23627;53.302;-6.362;2023-04-24T01:05:55;4.97;;;4.00;;
37787;SDS011;23627;53.302;-6.362;2023-04-24T01:08:22;5.30;;;3.72;;
37787;SDS011;23627;53.302;-6.362;2023-04-24T01:10:50;4.97;;;3.55;;
37787;SDS011;23627;53.302;-6.362;2023-04-24T01:13:17;6.10;;;3.90;;
37787;SDS011;23627;53.302;-6.362;2023-04-24T01:15:46;5.22;;;3.60;;
37787;SDS011;23627;53.302;-6.362;2023-04-24T01:18:13;5.50;;;3.83;;
37787;SDS011;23627;53.302;-6.362;2023-04-24T01:20:39;4.68;;;3.65;;
37787;SDS011;23627;53.302;-6.362;2023-04-24T01:23:07;8.00;;;3.83;;
37787;SDS011;23627;53.302;-6.362;2023-04-24T01:25:33;4.78;;;3.58;;
37787;SDS011;23627;53.302;-6.362;2023-04-24T01:28:00;4.43;;;3.22;;
37787;SDS011;23627;53.302;-6.362;2023-04-24T01:30:28;5.68;;;3.70;;
37787;SDS011;23627;53.302;-6.362;2023-04-24T01:32:56;5.90;;;3.60;;
37787;SDS011;23627;53.302;-6.362;2023-04-24T01:35:23;6.00;;;3.65;;
37787;SDS011;23627;53.302;-6.362;2023-04-24T01:37:49;4.70;;;3.33;;
37787;SDS011;23627;53.302;-6.362;2023-04-24T01:40:15;5.35;;;3.47;;
37787;SDS011;23627;53.302;-6.362;2023-04-24T01:42:41;5.88;;;3.63;;
37787;SDS011;23627;53.302;-6.362;2023-04-24T01:45:07;4.85;;;3.50;;
37787;SDS011;23627;53.302;-6.362;2023-04-24T01:47:36;4.50;;;3.40;;
37787;SDS011;23627;53.302;-6.362;2023-04-24T01:50:03;5.47;;;3.30;;
37787;SDS011;23627;53.302;-6.362;2023-04-24T01:52:29;4.30;;;3.20;;
37787;SDS011;23627;53.302;-6.362;2023-04-24T01:54:59;4.50;;;3.22;;
37787;SDS011;23627;53.302;-6.362;2023-04-24T01:57:25;4.43;;;3.20;;
37787;SDS011;23627;53.302;-6.362;2023-04-24T01:59:51;5.00;;;3.22;;
37787;SDS011;23627;53.302;-6.362;2023-04-24T02:02:17;4.32;;;2.90;;
37787;SDS011;23627;53.302;-6.362;2023-04-24T02:04:43;5.13;;;3.15;;
37787;SDS011;23627;53.302;-6.362;2023-04-24T02:07:08;4.07;;;3.00;;
37787;SDS011;23627;53.302;-6.362;2023-04-24T02:09:34;4.60;;;3.53;;
37787;SDS011;23627;53.302;-6.362;2023-04-24T02:12:00;4.85;;;3.30;;
37787;SDS011;23627;53.302;-6.362;2023-04-24T02:14:25;4.00;;;3.03;;
37787;SDS011;23627;53.302;-6.362;2023-04-24T02:16:51;4.47;;;3.30;;
37787;SDS011;23627;53.302;-6.362;2023-04-24T02:19:18;5.03;;;3.05;;
37787;SDS011;23627;53.302;-6.362;2023-04-24T02:21:44;5.57;;;3.22;;
37787;SDS011;23627;53.302;-6.362;2023-04-24T02:24:10;6.13;;;3.42;;
37787;SDS011;23627;53.302;-6.362;2023-04-24T02:26:36;5.00;;;3.20;;
37787;SDS011;23627;53.302;-6.362;2023-04-24T02:29:01;5.22;;;3.00;;
37787;SDS011;23627;53.302;-6.362;2023-04-24T02:31:27;3.90;;;3.03;;
37787;SDS011;23627;53.302;-6.362;2023-04-24T02:33:53;4.55;;;2.92;;
37787;SDS011;23627;53.302;-6.362;2023-04-24T02:36:19;4.45;;;3.13;;
37787;SDS011;23627;53.302;-6.362;2023-04-24T02:38:44;3.72;;;2.70;;
37787;SDS011;23627;53.302;-6.362;2023-04-24T02:41:10;3.88;;;2.92;;
37787;SDS011;23627;53.302;-6.362;2023-04-24T02:43:36;4.75;;;3.20;;
37787;SDS011;23627;53.302;-6.362;2023-04-24T02:46:01;4.03;;;2.80;;
37787;SDS011;23627;53.302;-6.362;2023-04-24T02:48:27;3.92;;;2.88;;
37787;SDS011;23627;53.302;-6.362;2023-04-24T02:50:53;5.57;;;3.05;;
37787;SDS011;23627;53.302;-6.362;2023-04-24T02:53:19;4.13;;;3.00;;
37787;SDS011;23627;53.302;-6.362;2023-04-24T02:55:45;4.63;;;2.83;;
37787;SDS011;23627;53.302;-6.362;2023-04-24T02:58:11;4.72;;;3.28;;
37787;SDS011;23627;53.302;-6.362;2023-04-24T03:00:38;3.95;;;2.90;;
37787;SDS011;23627;53.302;-6.362;2023-04-24T03:03:04;4.72;;;2.95;;
37787;SDS011;23627;53.302;-6.362;2023-04-24T03:05:30;4.07;;;2.63;;
37787;SDS011;23627;53.302;-6.362;2023-04-24T03:07:56;4.30;;;2.97;;
37787;SDS011;23627;53.302;-6.362;2023-04-24T03:10:22;4.07;;;2.63;;
37787;SDS011;23627;53.302;-6.362;2023-04-24T03:12:48;4.38;;;2.95;;
37787;SDS011;23627;53.302;-6.362;2023-04-24T03:15:14;3.83;;;2.75;;
37787;SDS011;23627;53.302;-6.362;2023-04-24T03:17:40;4.07;;;2.88;;
37787;SDS011;23627;53.302;-6.362;2023-04-24T03:20:06;4.68;;;3.10;;
37787;SDS011;23627;53.302;-6.362;2023-04-24T03:22:33;5.25;;;3.08;;
37787;SDS011;23627;53.302;-6.362;2023-04-24T03:24:59;4.53;;;3.03;;
37787;SDS011;23627;53.302;-6.362;2023-04-24T03:27:25;4.90;;;3.13;;
37787;SDS011;23627;53.302;-6.362;2023-04-24T03:29:51;5.18;;;3.05;;
37787;SDS011;23627;53.302;-6.362;2023-04-24T03:32:20;5.15;;;3.17;;
37787;SDS011;23627;53.302;-6.362;2023-04-24T03:34:47;4.20;;;2.83;;
37787;SDS011;23627;53.302;-6.362;2023-04-24T03:37:13;5.22;;;3.00;;
37787;SDS011;23627;53.302;-6.362;2023-04-24T03:39:39;5.90;;;3.00;;
37787;SDS011;23627;53.302;-6.362;2023-04-24T03:42:05;4.25;;;2.97;;
37787;SDS011;23627;53.302;-6.362;2023-04-24T03:44:31;6.32;;;3.28;;
37787;SDS011;23627;53.302;-6.362;2023-04-24T03:46:57;5.30;;;2.85;;
37787;SDS011;23627;53.302;-6.362;2023-04-24T03:49:23;4.00;;;2.90;;
37787;SDS011;23627;53.302;-6.362;2023-04-24T03:51:49;6.38;;;2.95;;
37787;SDS011;23627;53.302;-6.362;2023-04-24T03:54:15;4.32;;;2.95;;
37787;SDS011;23627;53.302;-6.362;2023-04-24T03:56:41;4.93;;;2.65;;
37787;SDS011;23627;53.302;-6.362;2023-04-24T03:59:07;3.67;;;2.85;;
37787;SDS011;23627;53.302;-6.362;2023-04-24T04:01:32;3.70;;;2.60;;
37787;SDS011;23627;53.302;-6.362;2023-04-24T04:04:01;5.22;;;2.90;;
37787;SDS011;23627;53.302;-6.362;2023-04-24T04:06:27;5.20;;;3.17;;
37787;SDS011;23627;53.302;-6.362;2023-04-24T04:08:53;5.30;;;2.70;;
37787;SDS011;23627;53.302;-6.362;2023-04-24T04:11:19;5.25;;;2.70;;
37787;SDS011;23627;53.302;-6.362;2023-04-24T04:13:45;4.95;;;2.72;;
37787;SDS011;23627;53.302;-6.362;2023-04-24T04:16:12;4.95;;;2.60;;
37787;SDS011;23627;53.302;-6.362;2023-04-24T04:18:38;6.13;;;2.92;;
37787;SDS011;23627;53.302;-6.362;2023-04-24T04:21:04;3.80;;;2.55;;
37787;SDS011;23627;53.302;-6.362;2023-04-24T04:23:30;4.28;;;2.75;;
37787;SDS011;23627;53.302;-6.362;2023-04-24T04:25:57;4.68;;;2.90;;
37787;SDS011;23627;53.302;-6.362;2023-04-24T04:28:23;5.60;;;3.08;;
37787;SDS011;23627;53.302;-6.362;2023-04-24T04:30:49;5.78;;;3.08;;
37787;SDS011;23627;53.302;-6.362;2023-04-24T04:33:19;5.18;;;3.42;;
37787;SDS011;23627;53.302;-6.362;2023-04-24T04:35:45;4.93;;;3.13;;
37787;SDS011;23627;53.302;-6.362;2023-04-24T04:38:14;5.63;;;3.38;;
37787;SDS011;23627;53.302;-6.362;2023-04-24T04:40:40;4.35;;;3.25;;
37787;SDS011;23627;53.302;-6.362;2023-04-24T04:43:06;4.57;;;3.22;;
37787;SDS011;23627;53.302;-6.362;2023-04-24T04:45:32;4.88;;;3.42;;
37787;SDS011;23627;53.302;-6.362;2023-04-24T04:47:59;4.78;;;3.35;;
37787;SDS011;23627;53.302;-6.362;2023-04-24T04:50:27;6.45;;;3.75;;
37787;SDS011;23627;53.302;-6.362;2023-04-24T04:52:52;6.22;;;3.25;;
37787;SDS011;23627;53.302;-6.362;2023-04-24T04:55:18;3.95;;;3.00;;
37787;SDS011;23627;53.302;-6.362;2023-04-24T04:57:47;4.97;;;3.10;;
37787;SDS011;23627;53.302;-6.362;2023-04-24T05:00:13;4.30;;;2.00;;
37787;SDS011;23627;53.302;-6.362;2023-04-24T05:02:39;3.42;;;1.85;;
37787;SDS011;23627;53.302;-6.362;2023-04-24T05:05:05;3.15;;;1.50;;
37787;SDS011;23627;53.302;-6.362;2023-04-24T05:07:31;1.63;;;1.20;;
37787;SDS011;23627;53.302;-6.362;2023-04-24T05:09:57;2.08;;;1.15;;
37787;SDS011;23627;53.302;-6.362;2023-04-24T05:12:23;1.40;;;0.77;;
37787;SDS011;23627;53.302;-6.362;2023-04-24T05:14:48;2.28;;;0.95;;
37787;SDS011;23627;53.302;-6.362;2023-04-24T05:17:14;1.60;;;0.75;;
37787;SDS011;23627;53.302;-6.362;2023-04-24T05:19:41;1.70;;;0.80;;
37787;SDS011;23627;53.302;-6.362;2023-04-24T05:22:07;1.48;;;0.90;;
37787;SDS011;23627;53.302;-6.362;2023-04-24T05:24:34;1.92;;;0.70;;
37787;SDS011;23627;53.302;-6.362;2023-04-24T05:27:01;1.25;;;0.50;;
37787;SDS011;23627;53.302;-6.362;2023-04-24T05:29:28;2.00;;;0.60;;
37787;SDS011;23627;53.302;-6.362;2023-04-24T05:31:56;2.15;;;0.80;;
37787;SDS011;23627;53.302;-6.362;2023-04-24T05:34:21;0.95;;;0.50;;
37787;SDS011;23627;53.302;-6.362;2023-04-24T05:36:47;1.52;;;0.60;;
37787;SDS011;23627;53.302;-6.362;2023-04-24T05:39:13;1.55;;;0.60;;
37787;SDS011;23627;53.302;-6.362;2023-04-24T05:41:40;2.03;;;0.50;;
37787;SDS011;23627;53.302;-6.362;2023-04-24T05:44:06;1.05;;;0.57;;
37787;SDS011;23627;53.302;-6.362;2023-04-24T05:46:31;1.42;;;0.68;;
37787;SDS011;23627;53.302;-6.362;2023-04-24T05:48:57;2.88;;;0.65;;
37787;SDS011;23627;53.302;-6.362;2023-04-24T05:51:23;1.58;;;0.60;;
37787;SDS011;23627;53.302;-6.362;2023-04-24T05:53:49;2.53;;;0.80;;
37787;SDS011;23627;53.302;-6.362;2023-04-24T05:56:15;2.80;;;0.73;;
37787;SDS011;23627;53.302;-6.362;2023-04-24T05:58:41;4.18;;;0.70;;
37787;SDS011;23627;53.302;-6.362;2023-04-24T06:01:07;2.92;;;0.80;;
37787;SDS011;23627;53.302;-6.362;2023-04-24T06:03:33;2.00;;;0.70;;
37787;SDS011;23627;53.302;-6.362;2023-04-24T06:05:58;4.60;;;0.85;;
37787;SDS011;23627;53.302;-6.362;2023-04-24T06:08:24;4.13;;;0.90;;
37787;SDS011;23627;53.302;-6.362;2023-04-24T06:10:50;2.45;;;1.00;;
37787;SDS011;23627;53.302;-6.362;2023-04-24T06:13:16;1.90;;;0.70;;
37787;SDS011;23627;53.302;-6.362;2023-04-24T06:15:43;3.80;;;1.00;;
37787;SDS011;23627;53.302;-6.362;2023-04-24T06:18:09;3.25;;;0.90;;
37787;SDS011;23627;53.302;-6.362;2023-04-24T06:20:38;2.45;;;1.05;;
37787;SDS011;23627;53.302;-6.362;2023-04-24T06:23:04;2.38;;;0.63;;
37787;SDS011;23627;53.302;-6.362;2023-04-24T06:25:30;2.80;;;0.90;;
37787;SDS011;23627;53.302;-6.362;2023-04-24T06:27:56;3.55;;;0.77;;
37787;SDS011;23627;53.302;-6.362;2023-04-24T06:30:22;2.78;;;0.82;;
37787;SDS011;23627;53.302;-6.362;2023-04-24T06:32:48;4.75;;;1.00;;
37787;SDS011;23627;53.302;-6.362;2023-04-24T06:35:14;2.35;;;0.80;;
37787;SDS011;23627;53.302;-6.362;2023-04-24T06:37:40;2.88;;;0.80;;
37787;SDS011;23627;53.302;-6.362;2023-04-24T06:40:07;2.55;;;0.82;;
37787;SDS011;23627;53.302;-6.362;2023-04-24T06:42:33;2.78;;;1.20;;
37787;SDS011;23627;53.302;-6.362;2023-04-24T06:45:00;4.43;;;1.10;;
37787;SDS011;23627;53.302;-6.362;2023-04-24T06:47:28;3.45;;;0.75;;
37787;SDS011;23627;53.302;-6.362;2023-04-24T06:49:54;4.05;;;1.00;;
37787;SDS011;23627;53.302;-6.362;2023-04-24T06:52:21;3.47;;;1.00;;
37787;SDS011;23627;53.302;-6.362;2023-04-24T06:54:47;6.30;;;1.23;;
37787;SDS011;23627;53.302;-6.362;2023-04-24T06:57:13;3.67;;;1.00;;
37787;SDS011;23627;53.302;-6.362;2023-04-24T06:59:39;3.25;;;0.90;;
37787;SDS011;23627;53.302;-6.362;2023-04-24T07:02:04;2.00;;;0.85;;
37787;SDS011;23627;53.302;-6.362;2023-04-24T07:04:30;3.83;;;1.05;;
37787;SDS011;23627;53.302;-6.362;2023-04-24T07:06:56;3.97;;;1.00;;
37787;SDS011;23627;53.302;-6.362;2023-04-24T07:09:23;2.00;;;0.70;;
37787;SDS011;23627;53.302;-6.362;2023-04-24T07:11:50;2.08;;;0.80;;
37787;SDS011;23627;53.302;-6.362;2023-04-24T07:14:17;2.58;;;0.68;;
37787;SDS011;23627;53.302;-6.362;2023-04-24T07:16:43;3.88;;;0.80;;
37787;SDS011;23627;53.302;-6.362;2023-04-24T07:19:10;3.13;;;0.82;;
37787;SDS011;23627;53.302;-6.362;2023-04-24T07:21:36;2.17;;;0.70;;
37787;SDS011;23627;53.302;-6.362;2023-04-24T07:24:02;3.67;;;0.98;;
37787;SDS011;23627;53.302;-6.362;2023-04-24T07:26:28;2.45;;;0.50;;
37787;SDS011;23627;53.302;-6.362;2023-04-24T07:28:54;2.08;;;0.70;;
37787;SDS011;23627;53.302;-6.362;2023-04-24T07:31:21;2.67;;;0.65;;
37787;SDS011;23627;53.302;-6.362;2023-04-24T07:33:46;3.65;;;0.73;;
37787;SDS011;23627;53.302;-6.362;2023-04-24T07:36:12;2.00;;;0.60;;
37787;SDS011;23627;53.302;-6.362;2023-04-24T07:38:42;2.03;;;0.73;;
37787;SDS011;23627;53.302;-6.362;2023-04-24T07:41:08;2.75;;;0.73;;
37787;SDS011;23627;53.302;-6.362;2023-04-24T07:43:34;1.60;;;0.70;;
37787;SDS011;23627;53.302;-6.362;2023-04-24T07:46:00;3.67;;;0.70;;
37787;SDS011;23627;53.302;-6.362;2023-04-24T07:48:26;2.22;;;0.70;;
37787;SDS011;23627;53.302;-6.362;2023-04-24T07:50:52;2.75;;;0.70;;
37787;SDS011;23627;53.302;-6.362;2023-04-24T07:53:18;1.55;;;0.60;;
37787;SDS011;23627;53.302;-6.362;2023-04-24T07:55:44;1.83;;;0.80;;
37787;SDS011;23627;53.302;-6.362;2023-04-24T07:58:10;2.72;;;0.90;;
37787;SDS011;23627;53.302;-6.362;2023-04-24T08:00:36;2.65;;;0.90;;
37787;SDS011;23627;53.302;-6.362;2023-04-24T08:03:02;2.85;;;0.90;;
37787;SDS011;23627;53.302;-6.362;2023-04-24T08:05:31;2.42;;;1.17;;
37787;SDS011;23627;53.302;-6.362;2023-04-24T08:07:57;2.95;;;0.90;;
37787;SDS011;23627;53.302;-6.362;2023-04-24T08:10:23;4.43;;;1.30;;
37787;SDS011;23627;53.302;-6.362;2023-04-24T08:12:49;3.53;;;1.10;;
37787;SDS011;23627;53.302;-6.362;2023-04-24T08:15:15;1.98;;;0.80;;
37787;SDS011;23627;53.302;-6.362;2023-04-24T08:17:41;5.13;;;0.98;;
37787;SDS011;23627;53.302;-6.362;2023-04-24T08:20:08;3.38;;;1.10;;
37787;SDS011;23627;53.302;-6.362;2023-04-24T08:22:41;3.50;;;0.82;;
37787;SDS011;23627;53.302;-6.362;2023-04-24T08:25:08;3.05;;;0.90;;
37787;SDS011;23627;53.302;-6.362;2023-04-24T08:27:35;2.25;;;0.70;;
37787;SDS011;23627;53.302;-6.362;2023-04-24T08:30:04;2.58;;;0.80;;
37787;SDS011;23627;53.302;-6.362;2023-04-24T08:32:31;3.05;;;0.90;;
37787;SDS011;23627;53.302;-6.362;2023-04-24T08:34:57;2.33;;;0.90;;
37787;SDS011;23627;53.302;-6.362;2023-04-24T08:37:25;1.88;;;0.95;;
37787;SDS011;23627;53.302;-6.362;2023-04-24T08:39:52;2.65;;;1.10;;
37787;SDS011;23627;53.302;-6.362;2023-04-24T08:42:18;4.32;;;0.95;;
37787;SDS011;23627;53.302;-6.362;2023-04-24T08:44:46;3.38;;;1.00;;
37787;SDS011;23627;53.302;-6.362;2023-04-24T08:47:13;2.47;;;0.90;;
37787;SDS011;23627;53.302;-6.362;2023-04-24T08:49:40;3.90;;;1.00;;
37787;SDS011;23627;53.302;-6.362;2023-04-24T08:52:07;5.15;;;1.10;;
37787;SDS011;23627;53.302;-6.362;2023-04-24T08:54:34;2.75;;;0.95;;
37787;SDS011;23627;53.302;-6.362;2023-04-24T08:57:01;3.28;;;0.98;;
37787;SDS011;23627;53.302;-6.362;2023-04-24T08:59:29;2.05;;;0.80;;
37787;SDS011;23627;53.302;-6.362;2023-04-24T09:01:58;4.13;;;1.17;;
37787;SDS011;23627;53.302;-6.362;2023-04-24T09:04:25;3.15;;;0.88;;
37787;SDS011;23627;53.302;-6.362;2023-04-24T09:06:55;5.13;;;1.08;;
37787;SDS011;23627;53.302;-6.362;2023-04-24T09:09:22;4.05;;;1.00;;
37787;SDS011;23627;53.302;-6.362;2023-04-24T09:11:50;3.58;;;1.00;;
37787;SDS011;23627;53.302;-6.362;2023-04-24T09:14:18;3.53;;;0.82;;
37787;SDS011;23627;53.302;-6.362;2023-04-24T09:16:45;5.38;;;1.10;;
37787;SDS011;23627;53.302;-6.362;2023-04-24T09:19:11;4.78;;;1.23;;
37787;SDS011;23627;53.302;-6.362;2023-04-24T09:21:37;2.25;;;1.00;;
37787;SDS011;23627;53.302;-6.362;2023-04-24T09:24:04;4.05;;;1.13;;
37787;SDS011;23627;53.302;-6.362;2023-04-24T09:26:33;3.28;;;1.10;;
37787;SDS011;23627;53.302;-6.362;2023-04-24T09:29:00;4.13;;;1.23;;
37787;SDS011;23627;53.302;-6.362;2023-04-24T09:31:28;3.38;;;1.17;;
37787;SDS011;23627;53.302;-6.362;2023-04-24T09:34:01;4.57;;;1.20;;
37787;SDS011;23627;53.302;-6.362;2023-04-24T09:36:34;2.78;;;1.00;;
37787;SDS011;23627;53.302;-6.362;2023-04-24T09:39:14;3.45;;;1.13;;
37787;SDS011;23627;53.302;-6.362;2023-04-24T09:44:15;4.07;;;1.30;;
37787;SDS011;23627;53.302;-6.362;2023-04-24T09:46:52;3.42;;;1.30;;
37787;SDS011;23627;53.302;-6.362;2023-04-24T09:49:29;2.97;;;1.10;;
37787;SDS011;23627;53.302;-6.362;2023-04-24T09:52:08;3.72;;;1.45;;
37787;SDS011;23627;53.302;-6.362;2023-04-24T09:54:35;3.75;;;1.25;;
37787;SDS011;23627;53.302;-6.362;2023-04-24T09:57:01;4.05;;;1.15;;
37787;SDS011;23627;53.302;-6.362;2023-04-24T09:59:28;4.78;;;1.30;;
37787;SDS011;23627;53.302;-6.362;2023-04-24T10:01:54;2.35;;;1.00;;
37787;SDS011;23627;53.302;-6.362;2023-04-24T10:04:27;4.13;;;1.25;;
37787;SDS011;23627;53.302;-6.362;2023-04-24T10:06:54;4.45;;;1.27;;
37787;SDS011;23627;53.302;-6.362;2023-04-24T10:09:22;3.67;;;1.10;;
37787;SDS011;23627;53.302;-6.362;2023-04-24T10:11:52;4.00;;;1.00;;
37787;SDS011;23627;53.302;-6.362;2023-04-24T10:14:23;3.90;;;1.33;;
37787;SDS011;23627;53.302;-6.362;2023-04-24T10:16:51;3.30;;;1.20;;
37787;SDS011;23627;53.302;-6.362;2023-04-24T10:19:19;2.75;;;0.98;;
37787;SDS011;23627;53.302;-6.362;2023-04-24T10:21:45;3.38;;;1.65;;
37787;SDS011;23627;53.302;-6.362;2023-04-24T10:24:14;4.22;;;1.08;;
37787;SDS011;23627;53.302;-6.362;2023-04-24T10:26:41;4.10;;;1.00;;
37787;SDS011;23627;53.302;-6.362;2023-04-24T10:29:07;2.85;;;1.08;;
37787;SDS011;23627;53.302;-6.362;2023-04-24T10:31:36;2.03;;;1.08;;
37787;SDS011;23627;53.302;-6.362;2023-04-24T10:34:03;2.83;;;1.30;;
37787;SDS011;23627;53.302;-6.362;2023-04-24T10:36:30;5.22;;;1.30;;
37787;SDS011;23627;53.302;-6.362;2023-04-24T10:39:01;3.75;;;1.40;;
37787;SDS011;23627;53.302;-6.362;2023-04-24T10:41:30;3.47;;;1.00;;
37787;SDS011;23627;53.302;-6.362;2023-04-24T10:44:04;4.72;;;1.00;;
37787;SDS011;23627;53.302;-6.362;2023-04-24T10:46:33;3.47;;;1.13;;
37787;SDS011;23627;53.302;-6.362;2023-04-24T10:49:48;3.30;;;0.98;;
37787;SDS011;23627;53.302;-6.362;2023-04-24T10:51:59;3.67;;;1.20;;
37787;SDS011;23627;53.302;-6.362;2023-04-24T10:54:28;3.97;;;1.50;;
37787;SDS011;23627;53.302;-6.362;2023-04-24T10:59:47;3.40;;;1.15;;
37787;SDS011;23627;53.302;-6.362;2023-04-24T11:02:17;4.47;;;1.00;;
37787;SDS011;23627;53.302;-6.362;2023-04-24T11:04:43;2.60;;;1.10;;
37787;SDS011;23627;53.302;-6.362;2023-04-24T11:07:12;4.90;;;1.10;;
37787;SDS011;23627;53.302;-6.362;2023-04-24T11:09:38;2.50;;;0.95;;
37787;SDS011;23627;53.302;-6.362;2023-04-24T11:12:09;6.03;;;1.00;;
37787;SDS011;23627;53.302;-6.362;2023-04-24T11:17:34;3.75;;;1.02;;
37787;SDS011;23627;53.302;-6.362;2023-04-24T11:20:09;4.95;;;1.25;;
37787;SDS011;23627;53.302;-6.362;2023-04-24T11:22:37;4.10;;;1.00;;
37787;SDS011;23627;53.302;-6.362;2023-04-24T11:25:08;4.07;;;1.15;;
37787;SDS011;23627;53.302;-6.362;2023-04-24T11:27:43;3.92;;;1.15;;
37787;SDS011;23627;53.302;-6.362;2023-04-24T11:30:11;4.03;;;1.13;;
37787;SDS011;23627;53.302;-6.362;2023-04-24T11:32:42;4.53;;;1.30;;
37787;SDS011;23627;53.302;-6.362;2023-04-24T11:35:13;3.75;;;1.15;;
37787;SDS011;23627;53.302;-6.362;2023-04-24T11:37:44;4.80;;;0.93;;
37787;SDS011;23627;53.302;-6.362;2023-04-24T11:40:12;4.85;;;1.30;;
37787;SDS011;23627;53.302;-6.362;2023-04-24T11:42:41;7.05;;;1.10;;
37787;SDS011;23627;53.302;-6.362;2023-04-24T11:45:12;4.63;;;1.30;;
37787;SDS011;23627;53.302;-6.362;2023-04-24T11:47:39;3.35;;;1.05;;
37787;SDS011;23627;53.302;-6.362;2023-04-24T11:50:06;4.70;;;1.15;;
37787;SDS011;23627;53.302;-6.362;2023-04-24T11:52:38;3.90;;;1.10;;
37787;SDS011;23627;53.302;-6.362;2023-04-24T11:55:06;3.92;;;1.15;;
37787;SDS011;23627;53.302;-6.362;2023-04-24T11:57:34;3.97;;;1.20;;
37787;SDS011;23627;53.302;-6.362;2023-04-24T12:00:02;4.13;;;1.10;;
37787;SDS011;23627;53.302;-6.362;2023-04-24T12:02:30;2.47;;;1.02;;
37787;SDS011;23627;53.302;-6.362;2023-04-24T12:04:55;3.60;;;1.10;;
37787;SDS011;23627;53.302;-6.362;2023-04-24T12:07:22;4.03;;;1.00;;
37787;SDS011;23627;53.302;-6.362;2023-04-24T12:09:58;2.13;;;0.98;;
37787;SDS011;23627;53.302;-6.362;2023-04-24T12:12:28;3.97;;;1.20;;
37787;SDS011;23627;53.302;-6.362;2023-04-24T12:14:55;5.05;;;1.30;;
37787;SDS011;23627;53.302;-6.362;2023-04-24T12:20:02;3.10;;;0.90;;
37787;SDS011;23627;53.302;-6.362;2023-04-24T12:22:43;4.05;;;1.27;;
37787;SDS011;23627;53.302;-6.362;2023-04-24T12:25:18;5.43;;;1.30;;
37787;SDS011;23627;53.302;-6.362;2023-04-24T12:27:52;3.08;;;1.10;;
37787;SDS011;23627;53.302;-6.362;2023-04-24T12:30:20;4.82;;;1.25;;
37787;SDS011;23627;53.302;-6.362;2023-04-24T12:32:47;4.00;;;1.48;;
37787;SDS011;23627;53.302;-6.362;2023-04-24T12:35:18;5.60;;;1.58;;
37787;SDS011;23627;53.302;-6.362;2023-04-24T12:37:45;4.28;;;1.30;;
37787;SDS011;23627;53.302;-6.362;2023-04-24T12:40:12;4.28;;;1.20;;
37787;SDS011;23627;53.302;-6.362;2023-04-24T12:42:43;3.35;;;1.13;;
37787;SDS011;23627;53.302;-6.362;2023-04-24T12:45:08;3.65;;;1.30;;
37787;SDS011;23627;53.302;-6.362;2023-04-24T12:47:37;4.38;;;1.13;;
37787;SDS011;23627;53.302;-6.362;2023-04-24T12:50:03;3.35;;;1.63;;
37787;SDS011;23627;53.302;-6.362;2023-04-24T12:52:29;3.67;;;1.27;;
37787;SDS011;23627;53.302;-6.362;2023-04-24T12:54:56;4.43;;;1.58;;
37787;SDS011;23627;53.302;-6.362;2023-04-24T12:57:23;4.38;;;1.35;;
37787;SDS011;23627;53.302;-6.362;2023-04-24T12:59:50;5.68;;;1.40;;
37787;SDS011;23627;53.302;-6.362;2023-04-24T13:02:17;5.68;;;1.40;;
37787;SDS011;23627;53.302;-6.362;2023-04-24T13:04:46;4.75;;;1.45;;
37787;SDS011;23627;53.302;-6.362;2023-04-24T13:07:12;4.28;;;1.50;;
37787;SDS011;23627;53.302;-6.362;2023-04-24T13:09:39;3.45;;;1.05;;
37787;SDS011;23627;53.302;-6.362;2023-04-24T13:12:06;4.88;;;1.30;;
37787;SDS011;23627;53.302;-6.362;2023-04-24T13:14:32;3.03;;;1.08;;
37787;SDS011;23627;53.302;-6.362;2023-04-24T13:16:58;2.25;;;1.00;;
37787;SDS011;23627;53.302;-6.362;2023-04-24T13:19:25;3.13;;;1.17;;
37787;SDS011;23627;53.302;-6.362;2023-04-24T13:21:52;3.13;;;1.50;;
37787;SDS011;23627;53.302;-6.362;2023-04-24T13:24:22;2.67;;;1.10;;
37787;SDS011;23627;53.302;-6.362;2023-04-24T13:26:54;3.80;;;1.40;;
37787;SDS011;23627;53.302;-6.362;2023-04-24T13:29:21;3.78;;;0.93;;
37787;SDS011;23627;53.302;-6.362;2023-04-24T13:31:50;3.47;;;1.30;;
37787;SDS011;23627;53.302;-6.362;2023-04-24T13:34:16;2.58;;;0.90;;
37787;SDS011;23627;53.302;-6.362;2023-04-24T13:36:43;3.50;;;1.08;;
37787;SDS011;23627;53.302;-6.362;2023-04-24T13:39:09;4.38;;;1.30;;
37787;SDS011;23627;53.302;-6.362;2023-04-24T13:41:35;3.45;;;1.15;;
37787;SDS011;23627;53.302;-6.362;2023-04-24T13:44:01;4.07;;;1.20;;
37787;SDS011;23627;53.302;-6.362;2023-04-24T13:46:28;4.57;;;1.33;;
37787;SDS011;23627;53.302;-6.362;2023-04-24T13:48:54;3.17;;;1.00;;
37787;SDS011;23627;53.302;-6.362;2023-04-24T13:51:20;3.17;;;1.20;;
37787;SDS011;23627;53.302;-6.362;2023-04-24T13:53:45;3.30;;;1.17;;
37787;SDS011;23627;53.302;-6.362;2023-04-24T13:56:11;5.78;;;1.20;;
37787;SDS011;23627;53.302;-6.362;2023-04-24T13:58:38;4.80;;;1.17;;
37787;SDS011;23627;53.302;-6.362;2023-04-24T14:01:04;2.47;;;0.88;;
37787;SDS011;23627;53.302;-6.362;2023-04-24T14:03:30;5.10;;;1.00;;
37787;SDS011;23627;53.302;-6.362;2023-04-24T14:05:56;4.30;;;1.15;;
37787;SDS011;23627;53.302;-6.362;2023-04-24T14:08:22;2.35;;;1.30;;
37787;SDS011;23627;53.302;-6.362;2023-04-24T14:10:48;2.65;;;0.95;;
37787;SDS011;23627;53.302;-6.362;2023-04-24T14:13:15;3.67;;;1.50;;
37787;SDS011;23627;53.302;-6.362;2023-04-24T14:15:41;4.22;;;1.08;;
37787;SDS011;23627;53.302;-6.362;2023-04-24T14:18:07;5.93;;;1.25;;
37787;SDS011;23627;53.302;-6.362;2023-04-24T14:20:33;3.97;;;1.10;;
37787;SDS011;23627;53.302;-6.362;2023-04-24T14:23:01;3.47;;;1.33;;
37787;SDS011;23627;53.302;-6.362;2023-04-24T14:25:27;4.05;;;1.10;;
37787;SDS011;23627;53.302;-6.362;2023-04-24T14:27:53;3.55;;;1.10;;
37787;SDS011;23627;53.302;-6.362;2023-04-24T14:30:19;5.05;;;1.15;;
37787;SDS011;23627;53.302;-6.362;2023-04-24T14:32:45;1.92;;;1.13;;
37787;SDS011;23627;53.302;-6.362;2023-04-24T14:35:11;2.90;;;0.98;;
37787;SDS011;23627;53.302;-6.362;2023-04-24T14:37:37;3.38;;;1.30;;
37787;SDS011;23627;53.302;-6.362;2023-04-24T14:40:03;3.53;;;0.95;;
37787;SDS011;23627;53.302;-6.362;2023-04-24T14:42:31;4.05;;;1.17;;